Algerita, Texas
Current Conditions -  °F | °C
As of 10:15 AM on Wednesday 22 Oct 2014 (Local Time) from KBBD Reporting Station
Broken Clouds Broken Clouds  
Wind Chill: 70°   Ceiling: 8500
Heat Index: 70°   Visibility: 10mi
Dew Point: 52°   Wind: 8mph
Humidity: 53%   Direction: 150°SSE
Pressure: 30.15"   Gusts: NA
Location:  31.0718°N, 98.8001°W
Report Text: KBBD 221515Z AUTO 15007KT 10SM BKN085 21/11 A3015 RMK
Loading
Personal Weather Stations






























Interactive Weather Map
Tropical Storm Tracking
New forecast layout! Learn more

10-Day Weather Forecast

Advertisements
Track Severe Weather on mobile